Terminal Aerodrome Forecast
Issued by NWS Upton, NY

Home | Current Version | Previous Version | Text Only | Print | Product List | Glossary On
Versions: 1 2 3 4 5 6 7 8 9 10 11 12 13 14 15 16 17 18 19 20 21 22 23 24 25 26 27 28 29 30 31 32 33 34
000
FTUS41 KOKX 050700 AAA
TAFJFK
TAF AMD
KJFK 050734Z 0508/0612 28006KT 6SM -RA BR OVC040
     FM050830 29007KT 4SM -RA BR OVC030
     FM050930 31008KT 1SM -RASNPL BR SCT008 OVC015
     FM051030 35008KT 1/2SM SN FZFG OVC008
     FM051200 35012G18KT 1SM -SN BR OVC008
     FM051600 35012G18KT 2SM -SN BR SCT008 OVC015
     FM052200 33012KT P6SM BKN020 OVC050
     FM060200 33012KT P6SM SCT020 BKN050=

USA.gov is the U.S. government's official web portal to all federal, state and local government web resources and services.